SPSO

Capitán FAP Renán Elías Olivera International Airport

Pisco, Peru
SPSO 151100Z 1512/1612 VRB03KT 7000 OVC020 TX18/1519Z TN14/1611Z TEMPO 1512/1514 5000 BR OVC015 FM151600 29008KT 9999 BKN022 BECMG 1520/1522 23014KT CAVOK BECMG 1600/1602 21006KT 8000 OVC017
Issued Valid From Valid To
Aug-15 @ 11:00 UTC
(2 hours ago)
Aug-15 @ 12:00 UTC
(42 minutes ago)
Aug-16 @ 12:00 UTC
(in 23 hours)
Aug-15 @ 12:00 to Aug-15 @ 16:00
SPSO 151100Z 1512/1612 VRB03KT 7000 OVC020 TX18/1519Z TN14/1611Z
Wind Visibility Clouds
Variable at 3 knots 7,001 meters
  • Overcast at 2,000' AGL
Temporary Aug-15 @ 12:00 to Aug-15 @ 14:00
TEMPO 1512/1514 5000 BR OVC015
Visibility Clouds Conditions
5,005 meters
  • Overcast at 1,500' AGL
  • Mist
From Aug-15 @ 16:00 to Aug-15 @ 20:00
FM151600 29008KT 9999 BKN022
Wind Visibility Clouds
290° at 8 knots 10,000+ meters
  • Broken at 2,200' AGL
Becoming Aug-15 @ 20:00 to Aug-16 @ 00:00
BECMG 1520/1522 23014KT CAVOK
Wind Visibility Clouds Conditions
230° at 14 knots 10,000+ meters
  • No significant clouds
Becoming Aug-16 @ 00:00 to Aug-16 @ 12:00
BECMG 1600/1602 21006KT 8000 OVC017
Wind Visibility Clouds Conditions
210° at 6 knots 7,998 meters
  • Overcast at 1,700' AGL
SPSO 151100Z 1512/1612 VRB03KT 7000 OVC020 TX18/1519Z TN14/1611Z TEMPO 1512/1514 5000 BR OVC015 FM151600 29008KT 9999 BKN022 BECMG 1520/1522 23014KT CAVOK BECMG 1600/1602 21006KT 8000 OVC017
Issued Aug-15 @ 11:00 UTC
(2 hours ago)
Valid From Aug-15 @ 12:00 UTC
(42 minutes ago)
Valid To Aug-16 @ 12:00 UTC
(in 23 hours)
Aug-15 @ 12:00 - Aug-15 @ 16:00
Wind Visibility
Variable at 3 knots 7,001 meters
Clouds
  • Overcast at 2,000' AGL
Temporary Aug-15 @ 12:00 - Aug-15 @ 14:00
Clouds
  • Overcast at 1,500' AGL
Conditions
  • Mist
From Aug-15 @ 16:00 - Aug-15 @ 20:00
Wind Visibility
290° at 8 knots 10,000+ meters
Clouds
  • Broken at 2,200' AGL
Becoming Aug-15 @ 20:00 - Aug-16 @ 00:00
Wind Visibility
230° at 14 knots 10,000+ meters
Clouds
  • No significant clouds
Conditions
Becoming Aug-16 @ 00:00 - Aug-16 @ 12:00
Wind Visibility
210° at 6 knots 7,998 meters
Clouds
  • Overcast at 1,700' AGL
Conditions